x

Destruction Island, Wa (desw1) Weather Station

6:00 - Wed 2nd Sep 2015 All times are PDT. -7 hours from GMT.

  • Wind
    6mph, 7mph gusts
  • Air Temp 60°f
  • Sea Pressure 1013.8mb
  • Destruction Island, Wa
  • Destruction Island, Wa

More Historic Weather Station data

Upgrade to MSW Pro to gain access to the past 30 days of data for over 8000 Wavebouys and Weather Stations around the globe.

Join Pro

Comparision Forecast

View Surf forecast
   
mer. 09/02 6:00 6 7 mph 1013.8mb 60f
5:00 6 7 mph 1013.8mb 60f
4:00 5 7 mph 1013.6mb 58f
3:00 3
mph
1013.1mb 56f
2:00 14 16 mph 1012.8mb 60f
1:00 15 16 mph 1012.9mb 59f
12:00 15 16 mph 1012.7mb 59f
11:00 15 17 mph 1012.3mb 59f
10:00 11 13 mph 1012mb 58f
9:00 14 15 mph 1011.6mb 56f
8:00 14
mph
1011.3mb 56f
7:00 10
mph
1010.9mb 56f
6:00 8 9 mph 1010.6mb 56f
5:00 7 8 mph 1010.3mb 56f
4:00 7
mph
1010mb 56f
3:00 10 11 mph 1009.7mb 57f
2:00 11 13 mph 1009.6mb 58f
1:00 14
mph
1009.4mb 57f
12:00 13 14 mph 1009.2mb 57f
mar. 09/01 11:00 8
mph
1009.2mb 57f
10:00 5 6 mph 1009.3mb 57f
9:00 17 18 mph 1009.1mb 57f
8:00 21 23 mph 1008.8mb 57f
7:00 17 22 mph 1009.1mb 57f
6:00 16 17 mph 1009mb 58f
5:00 15 16 mph 1009.3mb 58f
4:00 23 24 mph 1009.7mb 59f
3:00 14 15 mph 1010mb 59f
2:00 14 15 mph 1010.3mb 58f
1:00 15
mph
1010.6mb 59f
12:00 14 15 mph 1010.7mb 59f
11:00 15 16 mph 1010.9mb 59f
10:00 13 14 mph 1010.4mb 59f
9:00 13
mph
1010.7mb 58f
8:00 10
mph
1010.6mb 57f
7:00 8
mph
1010.7mb 57f
6:00 5
mph
1010.8mb 58f
5:00 3
mph
1011.4mb 58f
4:00 10
mph
1011.6mb 58f
3:00 13 14 mph 1011.5mb 57f
2:00 17 18 mph 1011.4mb 58f
1:00 18
mph
1011.3mb 57f
12:00 23 25 mph 1011.1mb 58f
lun. 08/31 11:00 21 22 mph 1011.5mb 58f
10:00 22 24 mph 1011.8mb 58f
9:00 18 20 mph 1012mb 58f
8:00 21 23 mph 1011.7mb 58f
7:00 26 28 mph 1012.1mb 58f
6:00 16 17 mph 1012.7mb 58f
5:00 15 17 mph 1013.1mb 57f
4:00 22 23 mph 1013.3mb 58f
3:00 21 23 mph 1013.5mb 58f
2:00 22 25 mph 1013.8mb 59f
1:00 20 23 mph 1013.8mb 58f
12:00 26 28 mph 1013.9mb 58f
11:00 20 22 mph 1013.7mb 58f
10:00 21 23 mph 1013.4mb 58f
9:00 20 21 mph 1013.5mb 57f
8:00 26 30 mph 1013.1mb 58f
7:00 25 28 mph 1012.9mb 58f
6:00 21 22 mph 1013mb 57f
5:00 16 17 mph 1012.9mb 58f
4:00 20 22 mph 1012.8mb 57f
3:00 26 28 mph 1012.8mb 57f
2:00 24 26 mph 1012.9mb 57f
1:00 28 31 mph 1013.3mb 57f
12:00 31 36 mph 1013.4mb 58f
dim. 08/30 11:00 24 30 mph 1013.8mb 58f
10:00 25 29 mph 1014mb 58f
9:00 25 26 mph 1014.2mb 58f
8:00 24 26 mph 1014.4mb 58f
7:00 20 22 mph 1014.6mb 57f
6:00 18 20 mph 1014.6mb 58f
5:00 20 21 mph 1014.6mb 58f
4:00 17 18 mph 1014.4mb 58f
3:00 18 20 mph 1014.2mb 58f
2:00 20 21 mph 1013.8mb 59f
1:00 20 21 mph 1013.1mb 59f
12:00 17 20 mph 1012.7mb 58f
11:00 17 20 mph 1012.2mb 58f
10:00 16 17 mph 1011.5mb 58f
9:00 16 17 mph 1010.5mb 57f
8:00 16 17 mph 1009.8mb 57f
7:00 16 17 mph 1008.9mb 55f
6:00 14 16 mph 1008.1mb 55f
5:00 15
mph
1007.8mb 55f
4:00 20 21 mph 1007.3mb 55f
3:00 17 18 mph 1007.1mb 55f